sensor_id;sensor_type;location;lat;lon;timestamp;P1;durP1;ratioP1;P2;durP2;ratioP2
17927;SDS011;9089;58.396;15.544;2023-03-14T00:00:21;0.82;;;0.70;;
17927;SDS011;9089;58.396;15.544;2023-03-14T00:02:50;0.93;;;0.40;;
17927;SDS011;9089;58.396;15.544;2023-03-14T00:05:16;1.58;;;0.60;;
17927;SDS011;9089;58.396;15.544;2023-03-14T00:07:42;1.05;;;0.68;;
17927;SDS011;9089;58.396;15.544;2023-03-14T00:10:08;2.10;;;0.60;;
17927;SDS011;9089;58.396;15.544;2023-03-14T00:12:33;0.70;;;0.50;;
17927;SDS011;9089;58.396;15.544;2023-03-14T00:15:00;2.45;;;0.55;;
17927;SDS011;9089;58.396;15.544;2023-03-14T00:17:28;2.00;;;0.65;;
17927;SDS011;9089;58.396;15.544;2023-03-14T00:19:54;1.50;;;0.77;;
17927;SDS011;9089;58.396;15.544;2023-03-14T00:22:19;2.95;;;0.77;;
17927;SDS011;9089;58.396;15.544;2023-03-14T00:24:44;2.65;;;0.50;;
17927;SDS011;9089;58.396;15.544;2023-03-14T00:27:10;1.63;;;0.57;;
17927;SDS011;9089;58.396;15.544;2023-03-14T00:29:37;1.40;;;0.73;;
17927;SDS011;9089;58.396;15.544;2023-03-14T00:32:04;0.90;;;0.50;;
17927;SDS011;9089;58.396;15.544;2023-03-14T00:34:29;1.40;;;0.40;;
17927;SDS011;9089;58.396;15.544;2023-03-14T00:36:55;1.00;;;0.50;;
17927;SDS011;9089;58.396;15.544;2023-03-14T00:39:20;0.93;;;0.50;;
17927;SDS011;9089;58.396;15.544;2023-03-14T00:41:46;1.52;;;0.52;;
17927;SDS011;9089;58.396;15.544;2023-03-14T00:44:12;2.30;;;0.80;;
17927;SDS011;9089;58.396;15.544;2023-03-14T00:46:38;2.50;;;0.70;;
17927;SDS011;9089;58.396;15.544;2023-03-14T00:49:05;1.25;;;0.60;;
17927;SDS011;9089;58.396;15.544;2023-03-14T00:51:30;1.50;;;0.68;;
17927;SDS011;9089;58.396;15.544;2023-03-14T00:53:55;1.05;;;0.60;;
17927;SDS011;9089;58.396;15.544;2023-03-14T00:56:21;1.45;;;0.50;;
17927;SDS011;9089;58.396;15.544;2023-03-14T00:58:46;1.92;;;0.95;;
17927;SDS011;9089;58.396;15.544;2023-03-14T01:01:13;1.05;;;0.52;;
17927;SDS011;9089;58.396;15.544;2023-03-14T01:03:39;4.10;;;0.68;;
17927;SDS011;9089;58.396;15.544;2023-03-14T01:06:10;2.30;;;0.90;;
17927;SDS011;9089;58.396;15.544;2023-03-14T01:08:35;1.63;;;0.50;;
17927;SDS011;9089;58.396;15.544;2023-03-14T01:11:04;1.48;;;0.57;;
17927;SDS011;9089;58.396;15.544;2023-03-14T01:13:30;1.17;;;0.65;;
17927;SDS011;9089;58.396;15.544;2023-03-14T01:15:55;2.17;;;0.60;;
17927;SDS011;9089;58.396;15.544;2023-03-14T01:18:25;1.17;;;0.60;;
17927;SDS011;9089;58.396;15.544;2023-03-14T01:20:51;1.75;;;0.60;;
17927;SDS011;9089;58.396;15.544;2023-03-14T01:23:17;3.05;;;0.85;;
17927;SDS011;9089;58.396;15.544;2023-03-14T01:25:43;1.05;;;0.50;;
17927;SDS011;9089;58.396;15.544;2023-03-14T01:28:09;2.75;;;1.08;;
17927;SDS011;9089;58.396;15.544;2023-03-14T01:30:34;1.05;;;0.52;;
17927;SDS011;9089;58.396;15.544;2023-03-14T01:33:00;0.82;;;0.65;;
17927;SDS011;9089;58.396;15.544;2023-03-14T01:35:25;2.03;;;0.80;;
17927;SDS011;9089;58.396;15.544;2023-03-14T01:37:50;0.63;;;0.60;;
17927;SDS011;9089;58.396;15.544;2023-03-14T01:40:21;1.48;;;0.60;;
17927;SDS011;9089;58.396;15.544;2023-03-14T01:42:53;1.23;;;0.70;;
17927;SDS011;9089;58.396;15.544;2023-03-14T01:48:03;1.10;;;0.60;;
17927;SDS011;9089;58.396;15.544;2023-03-14T01:50:29;1.45;;;0.70;;
17927;SDS011;9089;58.396;15.544;2023-03-14T01:52:54;1.42;;;0.60;;
17927;SDS011;9089;58.396;15.544;2023-03-14T01:55:23;2.10;;;0.80;;
17927;SDS011;9089;58.396;15.544;2023-03-14T01:57:49;1.63;;;0.80;;
17927;SDS011;9089;58.396;15.544;2023-03-14T02:00:17;2.25;;;0.90;;
17927;SDS011;9089;58.396;15.544;2023-03-14T02:02:44;0.70;;;0.52;;
17927;SDS011;9089;58.396;15.544;2023-03-14T02:05:10;1.67;;;0.70;;
17927;SDS011;9089;58.396;15.544;2023-03-14T02:07:39;2.70;;;0.77;;
17927;SDS011;9089;58.396;15.544;2023-03-14T02:10:12;1.35;;;0.60;;
17927;SDS011;9089;58.396;15.544;2023-03-14T02:12:40;0.82;;;0.55;;
17927;SDS011;9089;58.396;15.544;2023-03-14T02:15:14;1.10;;;0.50;;
17927;SDS011;9089;58.396;15.544;2023-03-14T02:18:01;1.88;;;0.73;;
17927;SDS011;9089;58.396;15.544;2023-03-14T02:20:40;0.98;;;0.45;;
17927;SDS011;9089;58.396;15.544;2023-03-14T02:23:07;1.85;;;0.75;;
17927;SDS011;9089;58.396;15.544;2023-03-14T02:25:36;0.90;;;0.50;;
17927;SDS011;9089;58.396;15.544;2023-03-14T02:28:04;0.50;;;0.40;;
17927;SDS011;9089;58.396;15.544;2023-03-14T02:30:31;0.50;;;0.35;;
17927;SDS011;9089;58.396;15.544;2023-03-14T02:32:59;0.60;;;0.50;;
17927;SDS011;9089;58.396;15.544;2023-03-14T02:35:27;1.65;;;0.40;;
17927;SDS011;9089;58.396;15.544;2023-03-14T02:37:55;0.57;;;0.40;;
17927;SDS011;9089;58.396;15.544;2023-03-14T02:40:24;0.82;;;0.40;;
17927;SDS011;9089;58.396;15.544;2023-03-14T02:42:51;0.85;;;0.50;;
17927;SDS011;9089;58.396;15.544;2023-03-14T02:45:41;1.65;;;0.35;;
17927;SDS011;9089;58.396;15.544;2023-03-14T02:48:09;0.45;;;0.45;;
17927;SDS011;9089;58.396;15.544;2023-03-14T02:50:37;0.85;;;0.40;;
17927;SDS011;9089;58.396;15.544;2023-03-14T02:53:03;0.57;;;0.30;;
17927;SDS011;9089;58.396;15.544;2023-03-14T02:55:29;0.55;;;0.20;;
17927;SDS011;9089;58.396;15.544;2023-03-14T02:57:58;0.57;;;0.38;;
17927;SDS011;9089;58.396;15.544;2023-03-14T03:00:24;0.77;;;0.40;;
17927;SDS011;9089;58.396;15.544;2023-03-14T03:02:52;0.65;;;0.40;;
17927;SDS011;9089;58.396;15.544;2023-03-14T03:05:17;0.88;;;0.40;;
17927;SDS011;9089;58.396;15.544;2023-03-14T03:07:43;1.08;;;0.40;;
17927;SDS011;9089;58.396;15.544;2023-03-14T03:10:09;0.60;;;0.60;;
17927;SDS011;9089;58.396;15.544;2023-03-14T03:12:34;0.30;;;0.30;;
17927;SDS011;9089;58.396;15.544;2023-03-14T03:15:00;0.40;;;0.30;;
17927;SDS011;9089;58.396;15.544;2023-03-14T03:17:25;0.32;;;0.30;;
17927;SDS011;9089;58.396;15.544;2023-03-14T03:19:52;0.55;;;0.30;;
17927;SDS011;9089;58.396;15.544;2023-03-14T03:22:17;0.40;;;0.30;;
17927;SDS011;9089;58.396;15.544;2023-03-14T03:24:43;1.15;;;0.50;;
17927;SDS011;9089;58.396;15.544;2023-03-14T03:27:09;1.40;;;0.30;;
17927;SDS011;9089;58.396;15.544;2023-03-14T03:29:35;0.68;;;0.30;;
17927;SDS011;9089;58.396;15.544;2023-03-14T03:32:01;1.15;;;0.40;;
17927;SDS011;9089;58.396;15.544;2023-03-14T03:34:27;0.30;;;0.30;;
17927;SDS011;9089;58.396;15.544;2023-03-14T03:36:56;0.40;;;0.30;;
17927;SDS011;9089;58.396;15.544;2023-03-14T03:39:22;0.30;;;0.30;;
17927;SDS011;9089;58.396;15.544;2023-03-14T03:41:48;1.27;;;0.30;;
17927;SDS011;9089;58.396;15.544;2023-03-14T03:44:13;1.25;;;0.40;;
17927;SDS011;9089;58.396;15.544;2023-03-14T03:46:39;0.47;;;0.30;;
17927;SDS011;9089;58.396;15.544;2023-03-14T03:49:06;0.57;;;0.30;;
17927;SDS011;9089;58.396;15.544;2023-03-14T03:51:32;0.40;;;0.30;;
17927;SDS011;9089;58.396;15.544;2023-03-14T03:53:59;1.10;;;0.60;;
17927;SDS011;9089;58.396;15.544;2023-03-14T03:56:31;0.55;;;0.40;;
17927;SDS011;9089;58.396;15.544;2023-03-14T03:58:56;1.20;;;0.50;;
17927;SDS011;9089;58.396;15.544;2023-03-14T04:01:23;0.60;;;0.40;;
17927;SDS011;9089;58.396;15.544;2023-03-14T04:04:07;0.77;;;0.45;;
17927;SDS011;9089;58.396;15.544;2023-03-14T04:06:33;0.57;;;0.35;;
17927;SDS011;9089;58.396;15.544;2023-03-14T04:09:01;1.55;;;0.40;;
17927;SDS011;9089;58.396;15.544;2023-03-14T04:11:47;0.55;;;0.32;;
17927;SDS011;9089;58.396;15.544;2023-03-14T04:14:18;1.27;;;0.52;;
17927;SDS011;9089;58.396;15.544;2023-03-14T04:16:44;0.50;;;0.40;;
17927;SDS011;9089;58.396;15.544;2023-03-14T04:19:13;0.60;;;0.40;;
17927;SDS011;9089;58.396;15.544;2023-03-14T04:21:39;0.40;;;0.40;;
17927;SDS011;9089;58.396;15.544;2023-03-14T04:24:14;1.85;;;0.60;;
17927;SDS011;9089;58.396;15.544;2023-03-14T04:26:41;0.40;;;0.40;;
17927;SDS011;9089;58.396;15.544;2023-03-14T04:29:09;0.30;;;0.30;;
17927;SDS011;9089;58.396;15.544;2023-03-14T04:31:34;0.47;;;0.47;;
17927;SDS011;9089;58.396;15.544;2023-03-14T04:34:00;0.50;;;0.30;;
17927;SDS011;9089;58.396;15.544;2023-03-14T04:36:33;0.50;;;0.30;;
17927;SDS011;9089;58.396;15.544;2023-03-14T04:39:03;0.47;;;0.47;;
17927;SDS011;9089;58.396;15.544;2023-03-14T04:41:32;0.68;;;0.40;;
17927;SDS011;9089;58.396;15.544;2023-03-14T04:43:58;0.85;;;0.40;;
17927;SDS011;9089;58.396;15.544;2023-03-14T04:46:23;0.82;;;0.30;;
17927;SDS011;9089;58.396;15.544;2023-03-14T04:48:49;0.82;;;0.47;;
17927;SDS011;9089;58.396;15.544;2023-03-14T04:51:17;1.52;;;0.30;;
17927;SDS011;9089;58.396;15.544;2023-03-14T04:53:42;0.40;;;0.30;;
17927;SDS011;9089;58.396;15.544;2023-03-14T04:56:10;0.40;;;0.40;;
17927;SDS011;9089;58.396;15.544;2023-03-14T04:58:40;0.57;;;0.50;;
17927;SDS011;9089;58.396;15.544;2023-03-14T05:01:06;0.50;;;0.50;;
17927;SDS011;9089;58.396;15.544;2023-03-14T05:03:38;0.50;;;0.40;;
17927;SDS011;9089;58.396;15.544;2023-03-14T05:06:03;1.77;;;0.50;;
17927;SDS011;9089;58.396;15.544;2023-03-14T05:08:41;1.30;;;0.60;;
17927;SDS011;9089;58.396;15.544;2023-03-14T05:11:25;0.70;;;0.70;;
17927;SDS011;9089;58.396;15.544;2023-03-14T05:14:06;2.33;;;0.50;;
17927;SDS011;9089;58.396;15.544;2023-03-14T05:17:10;0.77;;;0.60;;
17927;SDS011;9089;58.396;15.544;2023-03-14T05:19:45;0.40;;;0.40;;
17927;SDS011;9089;58.396;15.544;2023-03-14T05:22:29;1.52;;;0.57;;
17927;SDS011;9089;58.396;15.544;2023-03-14T05:25:17;0.55;;;0.50;;
17927;SDS011;9089;58.396;15.544;2023-03-14T05:28:01;1.35;;;0.60;;
17927;SDS011;9089;58.396;15.544;2023-03-14T05:30:50;0.98;;;0.60;;
17927;SDS011;9089;58.396;15.544;2023-03-14T05:33:34;0.52;;;0.52;;
17927;SDS011;9089;58.396;15.544;2023-03-14T05:36:23;0.60;;;0.60;;
17927;SDS011;9089;58.396;15.544;2023-03-14T05:39:09;1.08;;;0.77;;
17927;SDS011;9089;58.396;15.544;2023-03-14T05:41:50;0.80;;;0.47;;
17927;SDS011;9089;58.396;15.544;2023-03-14T05:44:25;1.13;;;0.70;;
17927;SDS011;9089;58.396;15.544;2023-03-14T05:47:30;1.55;;;0.90;;
17927;SDS011;9089;58.396;15.544;2023-03-14T05:50:16;1.05;;;0.70;;
17927;SDS011;9089;58.396;15.544;2023-03-14T05:52:55;1.77;;;0.85;;
17927;SDS011;9089;58.396;15.544;2023-03-14T05:55:39;0.80;;;0.70;;
17927;SDS011;9089;58.396;15.544;2023-03-14T05:58:37;1.17;;;1.00;;
17927;SDS011;9089;58.396;15.544;2023-03-14T06:01:26;2.67;;;0.80;;
17927;SDS011;9089;58.396;15.544;2023-03-14T06:04:10;1.20;;;0.90;;
17927;SDS011;9089;58.396;15.544;2023-03-14T06:06:36;2.22;;;1.10;;
17927;SDS011;9089;58.396;15.544;2023-03-14T06:09:01;1.60;;;1.10;;
17927;SDS011;9089;58.396;15.544;2023-03-14T06:11:30;5.35;;;1.15;;
17927;SDS011;9089;58.396;15.544;2023-03-14T06:13:56;2.97;;;1.20;;
17927;SDS011;9089;58.396;15.544;2023-03-14T06:16:21;1.85;;;1.00;;
17927;SDS011;9089;58.396;15.544;2023-03-14T06:18:47;4.32;;;1.42;;
17927;SDS011;9089;58.396;15.544;2023-03-14T06:21:16;4.72;;;1.50;;
17927;SDS011;9089;58.396;15.544;2023-03-14T06:23:41;7.07;;;1.63;;
17927;SDS011;9089;58.396;15.544;2023-03-14T06:26:07;3.00;;;1.45;;
17927;SDS011;9089;58.396;15.544;2023-03-14T06:28:33;4.35;;;1.85;;
17927;SDS011;9089;58.396;15.544;2023-03-14T06:31:00;2.75;;;1.73;;
17927;SDS011;9089;58.396;15.544;2023-03-14T06:33:30;6.40;;;2.10;;
17927;SDS011;9089;58.396;15.544;2023-03-14T06:36:16;4.68;;;1.98;;
17927;SDS011;9089;58.396;15.544;2023-03-14T06:38:44;9.27;;;2.30;;
17927;SDS011;9089;58.396;15.544;2023-03-14T06:41:09;9.10;;;1.98;;
17927;SDS011;9089;58.396;15.544;2023-03-14T06:43:39;13.02;;;2.30;;
17927;SDS011;9089;58.396;15.544;2023-03-14T06:46:06;12.48;;;2.50;;
17927;SDS011;9089;58.396;15.544;2023-03-14T06:48:33;11.98;;;2.00;;
17927;SDS011;9089;58.396;15.544;2023-03-14T06:50:59;10.02;;;2.10;;
17927;SDS011;9089;58.396;15.544;2023-03-14T06:53:27;6.72;;;1.85;;
17927;SDS011;9089;58.396;15.544;2023-03-14T06:55:52;7.85;;;2.25;;
17927;SDS011;9089;58.396;15.544;2023-03-14T06:58:18;9.57;;;2.30;;
17927;SDS011;9089;58.396;15.544;2023-03-14T07:00:44;15.23;;;2.60;;
17927;SDS011;9089;58.396;15.544;2023-03-14T07:03:13;15.02;;;2.40;;
17927;SDS011;9089;58.396;15.544;2023-03-14T07:05:41;8.38;;;2.00;;
17927;SDS011;9089;58.396;15.544;2023-03-14T07:08:07;9.18;;;2.53;;
17927;SDS011;9089;58.396;15.544;2023-03-14T07:10:34;10.63;;;2.45;;
17927;SDS011;9089;58.396;15.544;2023-03-14T07:13:00;12.02;;;2.53;;
17927;SDS011;9089;58.396;15.544;2023-03-14T07:15:30;11.63;;;2.72;;
17927;SDS011;9089;58.396;15.544;2023-03-14T07:18:00;9.32;;;2.70;;
17927;SDS011;9089;58.396;15.544;2023-03-14T07:20:28;7.75;;;2.25;;
17927;SDS011;9089;58.396;15.544;2023-03-14T07:22:54;13.20;;;2.28;;
17927;SDS011;9089;58.396;15.544;2023-03-14T07:25:31;15.05;;;3.45;;
17927;SDS011;9089;58.396;15.544;2023-03-14T07:27:59;8.60;;;2.08;;
17927;SDS011;9089;58.396;15.544;2023-03-14T07:30:24;11.38;;;2.88;;
17927;SDS011;9089;58.396;15.544;2023-03-14T07:32:50;8.48;;;2.72;;
17927;SDS011;9089;58.396;15.544;2023-03-14T07:35:16;11.65;;;2.58;;
17927;SDS011;9089;58.396;15.544;2023-03-14T07:37:41;8.93;;;2.67;;
17927;SDS011;9089;58.396;15.544;2023-03-14T07:40:09;12.55;;;3.13;;
17927;SDS011;9089;58.396;15.544;2023-03-14T07:42:36;14.45;;;2.60;;
17927;SDS011;9089;58.396;15.544;2023-03-14T07:45:22;9.65;;;2.38;;
17927;SDS011;9089;58.396;15.544;2023-03-14T07:47:47;8.70;;;2.85;;
17927;SDS011;9089;58.396;15.544;2023-03-14T07:50:12;9.50;;;2.33;;
17927;SDS011;9089;58.396;15.544;2023-03-14T07:52:38;9.73;;;3.03;;
17927;SDS011;9089;58.396;15.544;2023-03-14T07:55:04;9.02;;;2.83;;
17927;SDS011;9089;58.396;15.544;2023-03-14T07:57:29;6.15;;;2.63;;
17927;SDS011;9089;58.396;15.544;2023-03-14T07:59:54;10.90;;;3.00;;
17927;SDS011;9089;58.396;15.544;2023-03-14T08:02:21;10.38;;;2.58;;
17927;SDS011;9089;58.396;15.544;2023-03-14T08:04:49;8.60;;;2.75;;
17927;SDS011;9089;58.396;15.544;2023-03-14T08:07:14;9.18;;;2.60;;
17927;SDS011;9089;58.396;15.544;2023-03-14T08:09:39;8.82;;;2.60;;
17927;SDS011;9089;58.396;15.544;2023-03-14T08:12:05;6.32;;;2.80;;
17927;SDS011;9089;58.396;15.544;2023-03-14T08:14:31;9.38;;;2.22;;
17927;SDS011;9089;58.396;15.544;2023-03-14T08:17:15;7.75;;;2.53;;
17927;SDS011;9089;58.396;15.544;2023-03-14T08:19:42;9.10;;;3.03;;
17927;SDS011;9089;58.396;15.544;2023-03-14T08:22:07;6.18;;;2.38;;
17927;SDS011;9089;58.396;15.544;2023-03-14T08:24:33;6.35;;;2.83;;
17927;SDS011;9089;58.396;15.544;2023-03-14T08:26:58;7.43;;;2.50;;
17927;SDS011;9089;58.396;15.544;2023-03-14T08:29:23;4.55;;;1.80;;
17927;SDS011;9089;58.396;15.544;2023-03-14T08:31:49;4.85;;;1.60;;
17927;SDS011;9089;58.396;15.544;2023-03-14T08:34:14;6.47;;;2.53;;
17927;SDS011;9089;58.396;15.544;2023-03-14T08:36:41;4.57;;;1.90;;
17927;SDS011;9089;58.396;15.544;2023-03-14T08:39:07;1.98;;;1.63;;
17927;SDS011;9089;58.396;15.544;2023-03-14T08:41:32;3.67;;;1.75;;
17927;SDS011;9089;58.396;15.544;2023-03-14T08:43:58;6.60;;;1.80;;
17927;SDS011;9089;58.396;15.544;2023-03-14T08:46:23;3.20;;;1.38;;
17927;SDS011;9089;58.396;15.544;2023-03-14T08:48:48;3.22;;;1.70;;
17927;SDS011;9089;58.396;15.544;2023-03-14T08:51:14;4.78;;;1.80;;
17927;SDS011;9089;58.396;15.544;2023-03-14T08:53:41;3.00;;;1.70;;
17927;SDS011;9089;58.396;15.544;2023-03-14T08:56:07;4.60;;;1.42;;
17927;SDS011;9089;58.396;15.544;2023-03-14T08:58:35;4.03;;;1.42;;
17927;SDS011;9089;58.396;15.544;2023-03-14T09:01:02;3.80;;;1.45;;
17927;SDS011;9089;58.396;15.544;2023-03-14T09:03:27;3.08;;;1.65;;
17927;SDS011;9089;58.396;15.544;2023-03-14T09:05:53;3.08;;;1.33;;
17927;SDS011;9089;58.396;15.544;2023-03-14T09:08:19;3.95;;;1.60;;
17927;SDS011;9089;58.396;15.544;2023-03-14T09:10:45;2.45;;;1.27;;
17927;SDS011;9089;58.396;15.544;2023-03-14T09:13:11;2.58;;;1.50;;
17927;SDS011;9089;58.396;15.544;2023-03-14T09:15:36;3.03;;;1.05;;
17927;SDS011;9089;58.396;15.544;2023-03-14T09:18:02;3.60;;;1.17;;
17927;SDS011;9089;58.396;15.544;2023-03-14T09:20:27;2.33;;;1.20;;
17927;SDS011;9089;58.396;15.544;2023-03-14T09:22:52;4.82;;;0.90;;
17927;SDS011;9089;58.396;15.544;2023-03-14T09:25:18;3.60;;;0.95;;
17927;SDS011;9089;58.396;15.544;2023-03-14T09:27:45;1.23;;;0.90;;
17927;SDS011;9089;58.396;15.544;2023-03-14T09:30:10;1.85;;;1.13;;
17927;SDS011;9089;58.396;15.544;2023-03-14T09:32:36;2.83;;;0.90;;
17927;SDS011;9089;58.396;15.544;2023-03-14T09:35:02;1.58;;;0.70;;
17927;SDS011;9089;58.396;15.544;2023-03-14T09:37:27;1.55;;;0.70;;
17927;SDS011;9089;58.396;15.544;2023-03-14T09:39:53;1.00;;;0.60;;
17927;SDS011;9089;58.396;15.544;2023-03-14T09:42:19;0.85;;;0.70;;
17927;SDS011;9089;58.396;15.544;2023-03-14T09:44:51;0.50;;;0.50;;
17927;SDS011;9089;58.396;15.544;2023-03-14T09:47:18;0.57;;;0.50;;
17927;SDS011;9089;58.396;15.544;2023-03-14T09:49:45;0.47;;;0.40;;
17927;SDS011;9089;58.396;15.544;2023-03-14T09:52:11;1.63;;;0.60;;
17927;SDS011;9089;58.396;15.544;2023-03-14T09:54:38;0.60;;;0.60;;
17927;SDS011;9089;58.396;15.544;2023-03-14T09:57:05;1.13;;;0.50;;
17927;SDS011;9089;58.396;15.544;2023-03-14T09:59:30;0.40;;;0.40;;
17927;SDS011;9089;58.396;15.544;2023-03-14T10:01:59;0.52;;;0.50;;
17927;SDS011;9089;58.396;15.544;2023-03-14T10:04:25;1.02;;;0.65;;
17927;SDS011;9089;58.396;15.544;2023-03-14T10:06:50;0.60;;;0.60;;
17927;SDS011;9089;58.396;15.544;2023-03-14T10:09:17;0.50;;;0.50;;
17927;SDS011;9089;58.396;15.544;2023-03-14T10:11:44;0.82;;;0.75;;
17927;SDS011;9089;58.396;15.544;2023-03-14T10:14:10;0.50;;;0.50;;
17927;SDS011;9089;58.396;15.544;2023-03-14T10:16:40;1.40;;;0.70;;
17927;SDS011;9089;58.396;15.544;2023-03-14T10:19:09;1.38;;;0.80;;
17927;SDS011;9089;58.396;15.544;2023-03-14T10:21:36;0.75;;;0.63;;
17927;SDS011;9089;58.396;15.544;2023-03-14T10:26:49;1.25;;;0.73;;
17927;SDS011;9089;58.396;15.544;2023-03-14T10:29:15;1.00;;;0.70;;
17927;SDS011;9089;58.396;15.544;2023-03-14T10:31:48;0.77;;;0.77;;
17927;SDS011;9089;58.396;15.544;2023-03-14T10:34:20;1.38;;;0.80;;
17927;SDS011;9089;58.396;15.544;2023-03-14T10:36:46;1.05;;;0.70;;
17927;SDS011;9089;58.396;15.544;2023-03-14T10:39:21;0.68;;;0.68;;
17927;SDS011;9089;58.396;15.544;2023-03-14T10:42:09;2.03;;;0.70;;
17927;SDS011;9089;58.396;15.544;2023-03-14T10:44:37;1.35;;;0.93;;
17927;SDS011;9089;58.396;15.544;2023-03-14T10:47:03;2.08;;;0.80;;
17927;SDS011;9089;58.396;15.544;2023-03-14T10:49:31;0.70;;;0.70;;
17927;SDS011;9089;58.396;15.544;2023-03-14T10:52:00;1.15;;;0.60;;
17927;SDS011;9089;58.396;15.544;2023-03-14T10:54:29;1.40;;;0.70;;
17927;SDS011;9089;58.396;15.544;2023-03-14T10:56:58;1.15;;;0.70;;
17927;SDS011;9089;58.396;15.544;2023-03-14T10:59:42;1.80;;;0.80;;
17927;SDS011;9089;58.396;15.544;2023-03-14T11:02:13;0.70;;;0.70;;
17927;SDS011;9089;58.396;15.544;2023-03-14T11:04:45;1.20;;;0.70;;
17927;SDS011;9089;58.396;15.544;2023-03-14T11:07:14;2.65;;;0.90;;
17927;SDS011;9089;58.396;15.544;2023-03-14T11:09:42;2.78;;;0.90;;
17927;SDS011;9089;58.396;15.544;2023-03-14T11:12:36;1.55;;;0.50;;
17927;SDS011;9089;58.396;15.544;2023-03-14T11:15:04;1.40;;;0.57;;
17927;SDS011;9089;58.396;15.544;2023-03-14T11:17:31;2.58;;;0.70;;
17927;SDS011;9089;58.396;15.544;2023-03-14T11:20:07;2.15;;;0.60;;
17927;SDS011;9089;58.396;15.544;2023-03-14T11:22:39;2.47;;;0.85;;
17927;SDS011;9089;58.396;15.544;2023-03-14T11:25:09;0.68;;;0.60;;
17927;SDS011;9089;58.396;15.544;2023-03-14T11:27:59;0.70;;;0.68;;
17927;SDS011;9089;58.396;15.544;2023-03-14T11:30:28;0.40;;;0.38;;
17927;SDS011;9089;58.396;15.544;2023-03-14T11:32:59;0.88;;;0.70;;
17927;SDS011;9089;58.396;15.544;2023-03-14T11:35:30;0.50;;;0.50;;
17927;SDS011;9089;58.396;15.544;2023-03-14T11:37:56;0.45;;;0.40;;
17927;SDS011;9089;58.396;15.544;2023-03-14T11:40:44;0.93;;;0.40;;
17927;SDS011;9089;58.396;15.544;2023-03-14T11:43:13;1.30;;;0.65;;
17927;SDS011;9089;58.396;15.544;2023-03-14T11:45:40;1.30;;;0.65;;
17927;SDS011;9089;58.396;15.544;2023-03-14T11:48:17;0.80;;;0.70;;
17927;SDS011;9089;58.396;15.544;2023-03-14T11:50:48;0.60;;;0.57;;
17927;SDS011;9089;58.396;15.544;2023-03-14T11:53:14;0.82;;;0.70;;
17927;SDS011;9089;58.396;15.544;2023-03-14T11:55:42;1.25;;;0.77;;
17927;SDS011;9089;58.396;15.544;2023-03-14T11:58:09;0.88;;;0.50;;
17927;SDS011;9089;58.396;15.544;2023-03-14T12:00:37;0.60;;;0.60;;
17927;SDS011;9089;58.396;15.544;2023-03-14T12:03:05;0.70;;;0.70;;
17927;SDS011;9089;58.396;15.544;2023-03-14T12:06:00;0.47;;;0.47;;
17927;SDS011;9089;58.396;15.544;2023-03-14T12:08:33;1.02;;;0.65;;
17927;SDS011;9089;58.396;15.544;2023-03-14T12:11:02;0.60;;;0.60;;
17927;SDS011;9089;58.396;15.544;2023-03-14T12:13:31;0.50;;;0.50;;
17927;SDS011;9089;58.396;15.544;2023-03-14T12:15:57;0.70;;;0.57;;
17927;SDS011;9089;58.396;15.544;2023-03-14T12:18:26;0.60;;;0.60;;
17927;SDS011;9089;58.396;15.544;2023-03-14T12:20:53;1.20;;;0.60;;
17927;SDS011;9089;58.396;15.544;2023-03-14T12:23:20;0.65;;;0.50;;
17927;SDS011;9089;58.396;15.544;2023-03-14T12:25:46;1.15;;;0.60;;
17927;SDS011;9089;58.396;15.544;2023-03-14T12:28:16;0.40;;;0.40;;
17927;SDS011;9089;58.396;15.544;2023-03-14T12:30:43;0.47;;;0.47;;
17927;SDS011;9089;58.396;15.544;2023-03-14T12:35:59;0.40;;;0.40;;
17927;SDS011;9089;58.396;15.544;2023-03-14T12:38:29;1.15;;;0.63;;
17927;SDS011;9089;58.396;15.544;2023-03-14T12:40:58;0.68;;;0.68;;
17927;SDS011;9089;58.396;15.544;2023-03-14T12:43:26;0.60;;;0.60;;
17927;SDS011;9089;58.396;15.544;2023-03-14T12:48:32;1.10;;;0.80;;
17927;SDS011;9089;58.396;15.544;2023-03-14T12:51:00;0.50;;;0.50;;
17927;SDS011;9089;58.396;15.544;2023-03-14T12:59:02;0.57;;;0.57;;
17927;SDS011;9089;58.396;15.544;2023-03-14T13:01:30;0.60;;;0.60;;
17927;SDS011;9089;58.396;15.544;2023-03-14T13:03:58;1.35;;;0.80;;
17927;SDS011;9089;58.396;15.544;2023-03-14T13:11:54;0.50;;;0.50;;
17927;SDS011;9089;58.396;15.544;2023-03-14T13:14:22;0.70;;;0.70;;
17927;SDS011;9089;58.396;15.544;2023-03-14T13:16:48;0.93;;;0.82;;
17927;SDS011;9089;58.396;15.544;2023-03-14T13:19:15;2.58;;;1.23;;
17927;SDS011;9089;58.396;15.544;2023-03-14T13:21:42;1.05;;;1.02;;
17927;SDS011;9089;58.396;15.544;2023-03-14T13:24:20;0.77;;;0.70;;
17927;SDS011;9089;58.396;15.544;2023-03-14T13:26:46;1.20;;;1.10;;
17927;SDS011;9089;58.396;15.544;2023-03-14T13:29:15;2.15;;;0.90;;
17927;SDS011;9089;58.396;15.544;2023-03-14T13:31:44;1.48;;;1.15;;
17927;SDS011;9089;58.396;15.544;2023-03-14T13:34:10;1.95;;;1.13;;
17927;SDS011;9089;58.396;15.544;2023-03-14T13:36:36;1.63;;;1.15;;
17927;SDS011;9089;58.396;15.544;2023-03-14T13:39:02;1.20;;;1.10;;
17927;SDS011;9089;58.396;15.544;2023-03-14T13:41:30;1.35;;;1.25;;
17927;SDS011;9089;58.396;15.544;2023-03-14T13:43:58;1.85;;;1.30;;
17927;SDS011;9089;58.396;15.544;2023-03-14T13:46:44;1.23;;;1.13;;
17927;SDS011;9089;58.396;15.544;2023-03-14T13:49:11;4.53;;;1.70;;
17927;SDS011;9089;58.396;15.544;2023-03-14T13:51:37;1.25;;;1.13;;
17927;SDS011;9089;58.396;15.544;2023-03-14T13:54:11;1.45;;;1.35;;
17927;SDS011;9089;58.396;15.544;2023-03-14T13:56:38;2.20;;;1.00;;
17927;SDS011;9089;58.396;15.544;2023-03-14T13:59:03;1.10;;;1.00;;
17927;SDS011;9089;58.396;15.544;2023-03-14T14:01:29;1.30;;;1.20;;
17927;SDS011;9089;58.396;15.544;2023-03-14T14:03:58;1.40;;;1.30;;
17927;SDS011;9089;58.396;15.544;2023-03-14T14:06:29;1.50;;;1.13;;
17927;SDS011;9089;58.396;15.544;2023-03-14T14:08:55;1.95;;;1.30;;
17927;SDS011;9089;58.396;15.544;2023-03-14T14:11:24;1.25;;;1.15;;
17927;SDS011;9089;58.396;15.544;2023-03-14T14:13:53;1.33;;;1.23;;
17927;SDS011;9089;58.396;15.544;2023-03-14T14:16:19;1.35;;;1.00;;
17927;SDS011;9089;58.396;15.544;2023-03-14T14:18:45;1.38;;;1.27;;
17927;SDS011;9089;58.396;15.544;2023-03-14T14:21:12;1.48;;;1.17;;
17927;SDS011;9089;58.396;15.544;2023-03-14T14:23:38;2.33;;;1.20;;
17927;SDS011;9089;58.396;15.544;2023-03-14T14:26:04;1.20;;;1.10;;
17927;SDS011;9089;58.396;15.544;2023-03-14T14:28:31;1.17;;;1.10;;
17927;SDS011;9089;58.396;15.544;2023-03-14T14:31:00;1.45;;;1.30;;
17927;SDS011;9089;58.396;15.544;2023-03-14T14:33:26;1.15;;;1.05;;
17927;SDS011;9089;58.396;15.544;2023-03-14T14:35:53;1.65;;;1.55;;
17927;SDS011;9089;58.396;15.544;2023-03-14T14:38:39;1.75;;;1.20;;
17927;SDS011;9089;58.396;15.544;2023-03-14T14:41:05;1.17;;;1.00;;
17927;SDS011;9089;58.396;15.544;2023-03-14T14:43:30;1.77;;;1.25;;
17927;SDS011;9089;58.396;15.544;2023-03-14T14:45:59;0.90;;;0.80;;
17927;SDS011;9089;58.396;15.544;2023-03-14T14:48:26;1.20;;;1.08;;
17927;SDS011;9089;58.396;15.544;2023-03-14T14:50:56;1.38;;;1.27;;
17927;SDS011;9089;58.396;15.544;2023-03-14T14:53:23;1.23;;;1.00;;
17927;SDS011;9089;58.396;15.544;2023-03-14T14:55:51;1.30;;;1.20;;
17927;SDS011;9089;58.396;15.544;2023-03-14T14:58:18;0.80;;;0.80;;
17927;SDS011;9089;58.396;15.544;2023-03-14T15:00:49;1.30;;;1.20;;
17927;SDS011;9089;58.396;15.544;2023-03-14T15:03:16;0.90;;;0.90;;
17927;SDS011;9089;58.396;15.544;2023-03-14T15:05:42;1.17;;;0.70;;
17927;SDS011;9089;58.396;15.544;2023-03-14T15:08:08;1.05;;;0.93;;
17927;SDS011;9089;58.396;15.544;2023-03-14T15:10:34;1.20;;;1.10;;
17927;SDS011;9089;58.396;15.544;2023-03-14T15:13:00;1.40;;;1.30;;
17927;SDS011;9089;58.396;15.544;2023-03-14T15:15:26;1.50;;;1.40;;
17927;SDS011;9089;58.396;15.544;2023-03-14T15:17:51;1.42;;;1.15;;
17927;SDS011;9089;58.396;15.544;2023-03-14T15:20:17;1.17;;;1.15;;